Niagara University, NY (14109)

12:39 PM EST on December 09, 2016 (GMT -0500)
Village of Lewiston | | Change Station

Elev 400 ft 43.17 °N, 79.03 °W | Updated 9 seconds ago

Partly Cloudy
Partly Cloudy
32.5 °F
Feels Like 27 °F
N
6.0
Wind Variable Wind from WSW

Today
High -- | Low -- °F
--% Chance of Precip.
Yesterday
High -- | Low -- °F
Precip. -- in
Pressure 30.30 in
Visibility 10.0 miles
Clouds Few 2500 ft
Mostly Cloudy 3700 ft
Mostly Cloudy 13000 ft
Mostly Cloudy 22000 ft
Windchill 27 °F
Dew Point 16 °F
Humidity 50%
Rainfall 0.00 in
Snow Depth Not available.
7:36 AM 4:40 PM
Waxing Gibbous, 75% visible
METAR KIAG 091653Z 29010KT 10SM FEW025 BKN037 BKN130 BKN220 M01/M08 A3025 RMK AO2 SLP258 T10111083
Pressure 30.30 in
Visibility 10.0 miles
Clouds Few 2500 ft
Mostly Cloudy 3700 ft
Mostly Cloudy 13000 ft
Mostly Cloudy 22000 ft
Windchill 27 °F
Dew Point 16 °F
Humidity 50%
Rainfall 0.00 in
Snow Depth Not available.
7:36 AM 4:40 PM
Waxing Gibbous, 75% visible
METAR KIAG 091653Z 29010KT 10SM FEW025 BKN037 BKN130 BKN220 M01/M08 A3025 RMK AO2 SLP258 T10111083

10-Day Weather Forecast

Almanac

Astronomy

Dec. 09, 2016 Rise Set
Actual Time
Civil Twilight
Nautical Twilight
Astronomical Twilight
Moon
Length of Visible Light
Length of Day
Tomorrow will be .
, % of the Moon is Illuminated

Today's Extremes

State Highs State Lows

Community

WunderPhotos

Upload Photos

1,956,462 photos uploaded!

WunderBlog® & News

Nearby

Air Quality

  Air Quality AQ Index Pollutant
Not available.

Snow Depth

Station Depth Elevation

Earthquake Activity

City Distance Mag. Time & Date
Minimum magnitude displayed is 2.5.

Coastal Water Temperatures

Place Temperature

Stations

Nearby Weather Stations

Station Location Temp. Windchill Dew Point Humidity Wind Precip. Elev Updated Type
                   

Watches & Warnings

There are currently no watches in effect.